PTSHO SBSJ-SGIB
Flight info
| Callsign | PTSHO |
|---|---|
| Flight time | N/A |
| Altitude | 24000 |
| Route | UKDAN UM415 ASETA UL301 UKLEN UZ152 UPORU |
| Aircraft | E110/L-SDFGHRY/S |
Departure
| Time | 2026-04-30 13:43 |
|---|---|
| Airport | Professor Urbano Ernesto Stumpf Airport (SBSJ) |
Arrival
| Time | N/A |
|---|---|
| Airport | Itaipú Airport (SGIB) |
| Time | Latitude | Longitude | Altitude | Speed | Heading |
|---|---|---|---|---|---|
| 2026-04-30 13:30 | -23.22559 | -45.86222 | 2061 ft | 0 kts | 45° |
| 2026-04-30 13:34 | -23.22581 | -45.86245 | 2061 ft | 3 kts | 49° |
| 2026-04-30 13:35 | -23.22589 | -45.86264 | 2061 ft | 3 kts | 106° |
| 2026-04-30 13:35 | -23.22583 | -45.86273 | 2061 ft | 0 kts | 135° |
| 2026-04-30 13:39 | -23.22588 | -45.86267 | 2061 ft | 7 kts | 133° |
| 2026-04-30 13:40 | -23.22639 | -45.86211 | 2061 ft | 10 kts | 134° |
| 2026-04-30 13:40 | -23.22703 | -45.86142 | 2060 ft | 15 kts | 138° |
| 2026-04-30 13:40 | -23.22785 | -45.86051 | 2060 ft | 18 kts | 135° |
| 2026-04-30 13:40 | -23.22885 | -45.85943 | 2060 ft | 22 kts | 133° |
| 2026-04-30 13:41 | -23.23000 | -45.85820 | 2060 ft | 24 kts | 135° |
| 2026-04-30 13:41 | -23.23118 | -45.85692 | 2060 ft | 24 kts | 135° |
| 2026-04-30 13:41 | -23.23236 | -45.85560 | 2061 ft | 24 kts | 135° |
| 2026-04-30 13:41 | -23.23356 | -45.85433 | 2061 ft | 24 kts | 135° |
| 2026-04-30 13:42 | -23.23474 | -45.85306 | 2064 ft | 23 kts | 136° |
| 2026-04-30 13:42 | -23.23568 | -45.85252 | 2065 ft | 13 kts | 196° |
| 2026-04-30 13:42 | -23.23606 | -45.85416 | 2055 ft | 15 kts | 313° |
| 2026-04-30 13:43 | -23.23504 | -45.85529 | 2054 ft | 45 kts | 316° |
| 2026-04-30 13:43 | -23.23115 | -45.85957 | 2048 ft | 115 kts | 318° |
| 2026-04-30 13:43 | -23.22449 | -45.86686 | 2259 ft | 143 kts | 313° |
| 2026-04-30 13:43 | -23.21794 | -45.87502 | 2852 ft | 145 kts | 310° |
| 2026-04-30 13:44 | -23.21134 | -45.88335 | 3418 ft | 146 kts | 312° |
| 2026-04-30 13:44 | -23.20462 | -45.89150 | 3968 ft | 139 kts | 313° |
| 2026-04-30 13:44 | -23.19825 | -45.89896 | 4525 ft | 134 kts | 313° |
| 2026-04-30 13:44 | -23.19185 | -45.90625 | 5044 ft | 133 kts | 311° |
| 2026-04-30 13:45 | -23.19543 | -45.92201 | 5977 ft | 134 kts | 197° |
| 2026-04-30 13:45 | -23.20475 | -45.92358 | 6342 ft | 136 kts | 181° |
| 2026-04-30 13:45 | -23.21415 | -45.92297 | 6717 ft | 136 kts | 190° |
| 2026-04-30 13:46 | -23.22314 | -45.92609 | 7084 ft | 135 kts | 203° |
| 2026-04-30 13:46 | -23.23192 | -45.92965 | 7471 ft | 136 kts | 204° |
| 2026-04-30 13:46 | -23.24068 | -45.93332 | 7866 ft | 136 kts | 204° |
| 2026-04-30 13:46 | -23.24954 | -45.93704 | 8286 ft | 137 kts | 205° |
| 2026-04-30 13:47 | -23.25848 | -45.94090 | 8680 ft | 137 kts | 205° |
| 2026-04-30 13:47 | -23.26729 | -45.94471 | 9045 ft | 137 kts | 205° |
| 2026-04-30 13:47 | -23.27619 | -45.94857 | 9440 ft | 138 kts | 205° |
| 2026-04-30 13:47 | -23.28508 | -45.95238 | 9825 ft | 138 kts | 205° |
| 2026-04-30 13:48 | -23.29417 | -45.95627 | 10162 ft | 139 kts | 205° |
| 2026-04-30 13:48 | -23.30310 | -45.96019 | 10470 ft | 140 kts | 205° |
| 2026-04-30 13:48 | -23.31222 | -45.96410 | 10779 ft | 141 kts | 205° |
| 2026-04-30 13:48 | -23.32131 | -45.96800 | 11065 ft | 142 kts | 205° |
| 2026-04-30 13:49 | -23.33056 | -45.97201 | 11360 ft | 143 kts | 205° |
| 2026-04-30 13:49 | -23.33983 | -45.97601 | 11624 ft | 143 kts | 205° |
| 2026-04-30 13:49 | -23.34905 | -45.97998 | 11921 ft | 144 kts | 206° |
| 2026-04-30 13:49 | -23.35844 | -45.98409 | 12203 ft | 145 kts | 211° |
| 2026-04-30 13:50 | -23.36430 | -45.99203 | 12468 ft | 138 kts | 262° |
| 2026-04-30 13:50 | -23.36237 | -46.01311 | 12908 ft | 141 kts | 275° |
| 2026-04-30 13:50 | -23.36172 | -46.02385 | 13157 ft | 142 kts | 273° |
| 2026-04-30 13:51 | -23.36130 | -46.03451 | 13398 ft | 142 kts | 272° |
| 2026-04-30 13:51 | -23.36095 | -46.04535 | 13642 ft | 143 kts | 272° |
| 2026-04-30 13:51 | -23.36059 | -46.05608 | 13868 ft | 143 kts | 272° |
| 2026-04-30 13:51 | -23.36025 | -46.06701 | 14065 ft | 144 kts | 272° |
| 2026-04-30 13:52 | -23.35993 | -46.07796 | 14276 ft | 144 kts | 272° |
| 2026-04-30 13:52 | -23.35960 | -46.08884 | 14480 ft | 144 kts | 272° |
| 2026-04-30 13:52 | -23.35929 | -46.09982 | 14685 ft | 145 kts | 272° |
| 2026-04-30 13:52 | -23.35895 | -46.11065 | 14879 ft | 145 kts | 273° |
| 2026-04-30 13:53 | -23.35856 | -46.12165 | 15052 ft | 145 kts | 272° |
| 2026-04-30 13:53 | -23.35823 | -46.13270 | 15225 ft | 145 kts | 273° |
| 2026-04-30 13:53 | -23.35790 | -46.14357 | 15392 ft | 145 kts | 272° |
| 2026-04-30 13:53 | -23.35760 | -46.15461 | 15550 ft | 145 kts | 272° |
| 2026-04-30 13:54 | -23.35727 | -46.16567 | 15705 ft | 146 kts | 272° |
| 2026-04-30 13:54 | -23.35690 | -46.17659 | 15850 ft | 146 kts | 272° |
| 2026-04-30 13:54 | -23.35657 | -46.18768 | 15979 ft | 146 kts | 272° |
| 2026-04-30 13:54 | -23.35621 | -46.19868 | 16130 ft | 146 kts | 272° |
| 2026-04-30 13:55 | -23.35590 | -46.20965 | 16260 ft | 146 kts | 272° |
| 2026-04-30 13:55 | -23.35551 | -46.22069 | 16382 ft | 146 kts | 272° |
| 2026-04-30 13:55 | -23.35518 | -46.23183 | 16508 ft | 146 kts | 272° |
| 2026-04-30 13:55 | -23.35484 | -46.24284 | 16628 ft | 146 kts | 272° |
| 2026-04-30 13:56 | -23.35449 | -46.25397 | 16739 ft | 147 kts | 272° |
| 2026-04-30 13:56 | -23.35412 | -46.26503 | 16864 ft | 147 kts | 272° |
| 2026-04-30 13:56 | -23.35378 | -46.27607 | 16981 ft | 147 kts | 272° |
| 2026-04-30 13:56 | -23.35340 | -46.28715 | 17095 ft | 147 kts | 273° |
| 2026-04-30 13:57 | -23.35306 | -46.29832 | 17207 ft | 147 kts | 272° |
| 2026-04-30 13:57 | -23.35273 | -46.30954 | 17317 ft | 147 kts | 272° |
| 2026-04-30 13:57 | -23.35240 | -46.32058 | 17409 ft | 147 kts | 272° |
| 2026-04-30 13:57 | -23.35202 | -46.33178 | 17507 ft | 148 kts | 272° |
| 2026-04-30 13:58 | -23.35168 | -46.34300 | 17607 ft | 148 kts | 272° |
| 2026-04-30 13:58 | -23.35092 | -46.36533 | 17769 ft | 149 kts | 272° |
| 2026-04-30 13:58 | -23.35057 | -46.37661 | 17852 ft | 148 kts | 273° |
| 2026-04-30 13:59 | -23.35021 | -46.38775 | 17928 ft | 149 kts | 272° |
| 2026-04-30 13:59 | -23.34989 | -46.39905 | 18012 ft | 149 kts | 272° |
| 2026-04-30 13:59 | -23.34945 | -46.41034 | 18093 ft | 149 kts | 272° |
| 2026-04-30 13:59 | -23.34911 | -46.42161 | 18167 ft | 149 kts | 272° |
| 2026-04-30 14:00 | -23.34875 | -46.43282 | 18239 ft | 149 kts | 273° |
| 2026-04-30 14:00 | -23.34800 | -46.45532 | 18384 ft | 149 kts | 272° |
| 2026-04-30 14:00 | -23.34764 | -46.46665 | 18435 ft | 149 kts | 273° |
| 2026-04-30 14:01 | -23.34725 | -46.47788 | 18498 ft | 149 kts | 273° |
| 2026-04-30 14:01 | -23.34689 | -46.48922 | 18548 ft | 149 kts | 273° |
| 2026-04-30 14:01 | -23.34651 | -46.50042 | 18613 ft | 149 kts | 273° |
| 2026-04-30 14:01 | -23.34615 | -46.51177 | 18659 ft | 149 kts | 273° |
| 2026-04-30 14:02 | -23.34579 | -46.52294 | 18721 ft | 149 kts | 273° |
| 2026-04-30 14:02 | -23.34540 | -46.53426 | 18778 ft | 149 kts | 273° |
| 2026-04-30 14:02 | -23.34502 | -46.54549 | 18837 ft | 149 kts | 272° |
| 2026-04-30 14:02 | -23.34466 | -46.55682 | 18884 ft | 149 kts | 273° |
| 2026-04-30 14:03 | -23.34426 | -46.56807 | 18949 ft | 150 kts | 273° |
| 2026-04-30 14:03 | -23.34389 | -46.57945 | 19009 ft | 150 kts | 272° |
| 2026-04-30 14:03 | -23.34349 | -46.59073 | 19059 ft | 150 kts | 273° |
| 2026-04-30 14:03 | -23.34312 | -46.60217 | 19109 ft | 150 kts | 273° |
| 2026-04-30 14:04 | -23.34275 | -46.61344 | 19163 ft | 150 kts | 272° |
| 2026-04-30 14:04 | -23.34237 | -46.62482 | 19209 ft | 150 kts | 273° |
| 2026-04-30 14:04 | -23.34200 | -46.63603 | 19270 ft | 150 kts | 273° |
| 2026-04-30 14:04 | -23.34158 | -46.64746 | 19312 ft | 150 kts | 273° |
| 2026-04-30 14:05 | -23.34120 | -46.65876 | 19350 ft | 150 kts | 273° |
| 2026-04-30 14:05 | -23.34081 | -46.67017 | 19390 ft | 150 kts | 273° |
| 2026-04-30 14:05 | -23.34043 | -46.68143 | 19445 ft | 150 kts | 273° |
| 2026-04-30 14:05 | -23.34003 | -46.69285 | 19489 ft | 150 kts | 273° |
| 2026-04-30 14:06 | -23.33965 | -46.70427 | 19528 ft | 150 kts | 273° |
| 2026-04-30 14:06 | -23.33887 | -46.72694 | 19586 ft | 150 kts | 273° |
| 2026-04-30 14:07 | -23.33808 | -46.74969 | 19640 ft | 150 kts | 273° |
| 2026-04-30 14:07 | -23.33766 | -46.76102 | 19684 ft | 151 kts | 273° |
| 2026-04-30 14:07 | -23.33728 | -46.77249 | 19714 ft | 151 kts | 273° |
| 2026-04-30 14:08 | -23.33649 | -46.79527 | 19749 ft | 151 kts | 273° |
| 2026-04-30 14:08 | -23.33609 | -46.80660 | 19760 ft | 151 kts | 273° |
| 2026-04-30 14:08 | -23.33529 | -46.82940 | 19837 ft | 151 kts | 273° |
| 2026-04-30 14:09 | -23.33489 | -46.84070 | 19874 ft | 151 kts | 273° |
| 2026-04-30 14:09 | -23.33449 | -46.85220 | 19894 ft | 151 kts | 273° |
| 2026-04-30 14:09 | -23.33368 | -46.87498 | 19915 ft | 151 kts | 273° |
| 2026-04-30 14:10 | -23.33328 | -46.88647 | 19919 ft | 151 kts | 273° |
| 2026-04-30 14:10 | -23.33286 | -46.89781 | 19930 ft | 151 kts | 273° |
| 2026-04-30 14:10 | -23.33246 | -46.90936 | 19955 ft | 151 kts | 273° |
| 2026-04-30 14:10 | -23.33205 | -46.92073 | 19988 ft | 151 kts | 273° |
| 2026-04-30 14:11 | -23.33166 | -46.93208 | 20017 ft | 151 kts | 274° |
| 2026-04-30 14:11 | -23.33123 | -46.94356 | 20041 ft | 151 kts | 273° |
| 2026-04-30 14:11 | -23.33083 | -46.95499 | 20050 ft | 151 kts | 273° |
| 2026-04-30 14:11 | -23.33044 | -46.96632 | 20063 ft | 151 kts | 273° |
| 2026-04-30 14:12 | -23.33000 | -46.97781 | 20077 ft | 151 kts | 273° |
| 2026-04-30 14:12 | -23.32958 | -46.98909 | 20081 ft | 149 kts | 273° |
| 2026-04-30 14:12 | -23.32918 | -47.00034 | 20082 ft | 146 kts | 273° |
| 2026-04-30 14:12 | -23.32893 | -47.00761 | 20084 ft | 144 kts | 273° |
| 2026-04-30 14:13 | -23.32842 | -47.02177 | 20088 ft | 139 kts | 273° |
| 2026-04-30 14:13 | -23.32803 | -47.03237 | 20084 ft | 139 kts | 273° |
| 2026-04-30 14:13 | -23.32764 | -47.04276 | 20086 ft | 137 kts | 273° |
| 2026-04-30 14:13 | -23.32727 | -47.05318 | 20085 ft | 137 kts | 273° |
| 2026-04-30 14:14 | -23.32690 | -47.06348 | 20086 ft | 137 kts | 273° |
| 2026-04-30 14:14 | -23.32654 | -47.07382 | 20090 ft | 136 kts | 273° |
| 2026-04-30 14:14 | -23.32612 | -47.08402 | 20087 ft | 136 kts | 273° |
| 2026-04-30 14:14 | -23.32575 | -47.09437 | 20084 ft | 137 kts | 273° |
| 2026-04-30 14:15 | -23.32537 | -47.10460 | 20088 ft | 137 kts | 273° |
| 2026-04-30 14:15 | -23.32499 | -47.11506 | 20088 ft | 138 kts | 273° |
| 2026-04-30 14:15 | -23.32460 | -47.12546 | 20087 ft | 138 kts | 273° |
| 2026-04-30 14:15 | -23.32421 | -47.13579 | 20086 ft | 137 kts | 273° |
| 2026-04-30 14:16 | -23.32384 | -47.14618 | 20089 ft | 137 kts | 274° |
| 2026-04-30 14:16 | -23.32345 | -47.15649 | 20090 ft | 138 kts | 273° |
| 2026-04-30 14:16 | -23.32319 | -47.16348 | 20086 ft | 139 kts | 273° |
| 2026-04-30 14:16 | -23.32266 | -47.17745 | 20084 ft | 137 kts | 273° |
| 2026-04-30 14:17 | -23.32241 | -47.18431 | 20086 ft | 137 kts | 273° |
| 2026-04-30 14:17 | -23.32190 | -47.19811 | 20091 ft | 138 kts | 273° |
| 2026-04-30 14:17 | -23.32163 | -47.20503 | 20089 ft | 138 kts | 273° |
| 2026-04-30 14:17 | -23.32111 | -47.21897 | 20086 ft | 138 kts | 273° |
| 2026-04-30 14:18 | -23.32082 | -47.22593 | 20086 ft | 137 kts | 273° |
| 2026-04-30 14:18 | -23.32046 | -47.23623 | 20084 ft | 136 kts | 273° |
| 2026-04-30 14:18 | -23.31968 | -47.25677 | 20077 ft | 136 kts | 273° |
| 2026-04-30 14:19 | -23.31890 | -47.27715 | 20079 ft | 137 kts | 273° |
| 2026-04-30 14:19 | -23.31850 | -47.28758 | 20078 ft | 137 kts | 273° |
| 2026-04-30 14:19 | -23.31812 | -47.29789 | 20079 ft | 137 kts | 273° |
| 2026-04-30 14:20 | -23.31774 | -47.30821 | 20078 ft | 136 kts | 273° |
| 2026-04-30 14:20 | -23.31732 | -47.31859 | 20076 ft | 137 kts | 274° |
| 2026-04-30 14:20 | -23.31653 | -47.33926 | 20072 ft | 137 kts | 273° |
| 2026-04-30 14:21 | -23.31613 | -47.34955 | 20074 ft | 138 kts | 273° |
| 2026-04-30 14:21 | -23.31575 | -47.35989 | 20073 ft | 137 kts | 274° |
| 2026-04-30 14:21 | -23.31493 | -47.38062 | 20068 ft | 137 kts | 273° |
| 2026-04-30 14:22 | -23.31454 | -47.39102 | 20069 ft | 137 kts | 273° |
| 2026-04-30 14:22 | -23.31374 | -47.41169 | 20074 ft | 137 kts | 273° |
| 2026-04-30 14:22 | -23.31332 | -47.42212 | 20073 ft | 138 kts | 274° |
| 2026-04-30 14:23 | -23.31251 | -47.44297 | 20072 ft | 137 kts | 273° |
| 2026-04-30 14:23 | -23.31171 | -47.46375 | 20070 ft | 140 kts | 273° |
| 2026-04-30 14:24 | -23.31083 | -47.48560 | 20079 ft | 147 kts | 273° |
| 2026-04-30 14:24 | -23.31039 | -47.49672 | 20087 ft | 149 kts | 273° |
| 2026-04-30 14:25 | -23.30949 | -47.51941 | 20086 ft | 152 kts | 273° |
| 2026-04-30 14:25 | -23.30859 | -47.54252 | 20089 ft | 153 kts | 273° |
| 2026-04-30 14:26 | -23.30766 | -47.56584 | 20088 ft | 155 kts | 273° |
| 2026-04-30 14:26 | -23.30718 | -47.57771 | 20086 ft | 157 kts | 273° |
| 2026-04-30 14:26 | -23.30626 | -47.60121 | 20083 ft | 156 kts | 273° |
| 2026-04-30 14:27 | -23.30576 | -47.61310 | 20084 ft | 156 kts | 273° |
| 2026-04-30 14:27 | -23.30528 | -47.62500 | 20086 ft | 157 kts | 273° |
| 2026-04-30 14:27 | -23.30480 | -47.63682 | 20083 ft | 157 kts | 273° |
| 2026-04-30 14:28 | -23.30386 | -47.66058 | 20084 ft | 158 kts | 273° |
| 2026-04-30 14:28 | -23.30335 | -47.67261 | 20081 ft | 158 kts | 273° |
| 2026-04-30 14:28 | -23.30288 | -47.68445 | 20084 ft | 158 kts | 273° |
| 2026-04-30 14:28 | -23.30240 | -47.69622 | 20084 ft | 157 kts | 273° |
| 2026-04-30 14:29 | -23.30144 | -47.71987 | 20085 ft | 157 kts | 273° |
| 2026-04-30 14:29 | -23.30045 | -47.74368 | 20082 ft | 158 kts | 273° |
| 2026-04-30 14:30 | -23.29900 | -47.77940 | 20083 ft | 158 kts | 273° |
| 2026-04-30 14:31 | -23.29800 | -47.80331 | 20084 ft | 159 kts | 273° |
| 2026-04-30 14:31 | -23.29701 | -47.82718 | 20079 ft | 157 kts | 273° |
| 2026-04-30 14:31 | -23.29651 | -47.83914 | 20081 ft | 157 kts | 273° |
| 2026-04-30 14:32 | -23.29552 | -47.86292 | 20080 ft | 158 kts | 273° |
| 2026-04-30 14:32 | -23.29503 | -47.87469 | 20080 ft | 157 kts | 274° |
| 2026-04-30 14:32 | -23.29454 | -47.88662 | 20079 ft | 157 kts | 274° |
| 2026-04-30 14:33 | -23.29404 | -47.89848 | 20079 ft | 157 kts | 274° |
| 2026-04-30 14:33 | -23.29303 | -47.92219 | 20079 ft | 157 kts | 273° |
| 2026-04-30 14:33 | -23.29255 | -47.93399 | 20082 ft | 158 kts | 273° |
| 2026-04-30 14:34 | -23.29205 | -47.94592 | 20082 ft | 158 kts | 274° |
| 2026-04-30 14:34 | -23.29152 | -47.95797 | 20079 ft | 159 kts | 274° |
| 2026-04-30 14:34 | -23.29101 | -47.96983 | 20082 ft | 158 kts | 273° |
| 2026-04-30 14:34 | -23.29052 | -47.98175 | 20081 ft | 158 kts | 274° |
| 2026-04-30 14:35 | -23.28950 | -48.00550 | 20082 ft | 157 kts | 274° |
| 2026-04-30 14:35 | -23.28900 | -48.01736 | 20080 ft | 158 kts | 274° |
| 2026-04-30 14:35 | -23.28849 | -48.02933 | 20080 ft | 157 kts | 274° |
| 2026-04-30 14:36 | -23.28798 | -48.04113 | 20083 ft | 157 kts | 274° |
| 2026-04-30 14:36 | -23.28746 | -48.05292 | 20085 ft | 157 kts | 274° |
| 2026-04-30 14:36 | -23.28696 | -48.06485 | 20082 ft | 157 kts | 274° |
| 2026-04-30 14:36 | -23.28646 | -48.07668 | 20082 ft | 158 kts | 274° |
| 2026-04-30 14:37 | -23.28594 | -48.08872 | 20087 ft | 158 kts | 274° |
| 2026-04-30 14:37 | -23.28619 | -48.10062 | 20078 ft | 159 kts | 262° |
| 2026-04-30 14:37 | -23.28813 | -48.11237 | 20079 ft | 159 kts | 263° |
| 2026-04-30 14:37 | -23.28988 | -48.12429 | 20083 ft | 159 kts | 264° |
| 2026-04-30 14:38 | -23.29159 | -48.13605 | 20079 ft | 158 kts | 263° |
| 2026-04-30 14:38 | -23.29336 | -48.14797 | 20084 ft | 158 kts | 263° |
| 2026-04-30 14:38 | -23.29507 | -48.15969 | 20083 ft | 159 kts | 263° |
| 2026-04-30 14:38 | -23.29683 | -48.17160 | 20080 ft | 159 kts | 263° |
| 2026-04-30 14:39 | -23.29855 | -48.18332 | 20083 ft | 158 kts | 263° |
| 2026-04-30 14:39 | -23.30028 | -48.19517 | 20081 ft | 158 kts | 263° |
| 2026-04-30 14:39 | -23.30201 | -48.20689 | 20077 ft | 158 kts | 263° |
| 2026-04-30 14:40 | -23.30549 | -48.23057 | 20078 ft | 159 kts | 263° |
| 2026-04-30 14:40 | -23.30723 | -48.24247 | 20081 ft | 159 kts | 263° |
| 2026-04-30 14:40 | -23.30896 | -48.25429 | 20077 ft | 159 kts | 263° |
| 2026-04-30 14:40 | -23.31070 | -48.26624 | 20082 ft | 159 kts | 263° |
| 2026-04-30 14:41 | -23.31248 | -48.27826 | 20076 ft | 160 kts | 263° |
| 2026-04-30 14:41 | -23.31420 | -48.29006 | 20078 ft | 159 kts | 263° |
| 2026-04-30 14:41 | -23.31595 | -48.30184 | 20078 ft | 159 kts | 263° |
| 2026-04-30 14:41 | -23.31769 | -48.31386 | 20078 ft | 159 kts | 264° |
| 2026-04-30 14:42 | -23.31938 | -48.32566 | 20079 ft | 160 kts | 263° |
| 2026-04-30 14:42 | -23.32115 | -48.33766 | 20081 ft | 159 kts | 263° |
| 2026-04-30 14:42 | -23.32287 | -48.34950 | 20080 ft | 160 kts | 263° |
| 2026-04-30 14:42 | -23.32464 | -48.36158 | 20076 ft | 160 kts | 263° |
| 2026-04-30 14:43 | -23.32636 | -48.37338 | 20077 ft | 159 kts | 263° |
| 2026-04-30 14:43 | -23.32810 | -48.38529 | 20085 ft | 160 kts | 263° |
| 2026-04-30 14:43 | -23.32986 | -48.39742 | 20077 ft | 160 kts | 263° |
| 2026-04-30 14:43 | -23.33159 | -48.40929 | 20079 ft | 160 kts | 263° |
| 2026-04-30 14:44 | -23.33471 | -48.42103 | 20078 ft | 163 kts | 250° |
| 2026-04-30 14:44 | -23.33906 | -48.43225 | 20078 ft | 161 kts | 251° |
| 2026-04-30 14:44 | -23.34322 | -48.44351 | 20079 ft | 161 kts | 252° |
| 2026-04-30 14:44 | -23.34741 | -48.45484 | 20077 ft | 161 kts | 251° |
| 2026-04-30 14:45 | -23.35163 | -48.46620 | 20076 ft | 161 kts | 251° |
| 2026-04-30 14:45 | -23.35579 | -48.47738 | 20079 ft | 161 kts | 251° |
| 2026-04-30 14:45 | -23.35998 | -48.48870 | 20075 ft | 160 kts | 251° |
| 2026-04-30 14:45 | -23.36413 | -48.49987 | 20079 ft | 160 kts | 251° |
| 2026-04-30 14:46 | -23.36831 | -48.51119 | 20076 ft | 160 kts | 251° |
| 2026-04-30 14:46 | -23.37248 | -48.52238 | 20077 ft | 161 kts | 251° |
| 2026-04-30 14:46 | -23.37669 | -48.53374 | 20079 ft | 162 kts | 251° |
| 2026-04-30 14:46 | -23.38091 | -48.54515 | 20081 ft | 162 kts | 251° |
| 2026-04-30 14:47 | -23.38518 | -48.55669 | 20077 ft | 163 kts | 251° |
| 2026-04-30 14:47 | -23.38940 | -48.56808 | 20079 ft | 162 kts | 251° |
| 2026-04-30 14:47 | -23.39359 | -48.57938 | 20080 ft | 162 kts | 251° |
| 2026-04-30 14:47 | -23.39777 | -48.59068 | 20078 ft | 162 kts | 251° |
| 2026-04-30 14:48 | -23.40197 | -48.60205 | 20082 ft | 162 kts | 251° |
| 2026-04-30 14:48 | -23.40621 | -48.61349 | 20079 ft | 162 kts | 251° |
| 2026-04-30 14:48 | -23.41041 | -48.62482 | 20082 ft | 162 kts | 251° |
| 2026-04-30 14:48 | -23.41458 | -48.63611 | 20085 ft | 163 kts | 251° |
| 2026-04-30 14:49 | -23.41887 | -48.64771 | 20083 ft | 164 kts | 251° |
| 2026-04-30 14:49 | -23.42308 | -48.65914 | 20075 ft | 163 kts | 251° |
| 2026-04-30 14:49 | -23.42732 | -48.67058 | 20081 ft | 164 kts | 251° |
| 2026-04-30 14:49 | -23.43162 | -48.68223 | 20075 ft | 164 kts | 251° |
| 2026-04-30 14:50 | -23.44010 | -48.70518 | 20078 ft | 163 kts | 251° |
| 2026-04-30 14:50 | -23.44429 | -48.71654 | 20078 ft | 163 kts | 251° |
| 2026-04-30 14:51 | -23.45272 | -48.73938 | 20077 ft | 162 kts | 251° |
| 2026-04-30 14:51 | -23.45696 | -48.75090 | 20076 ft | 163 kts | 251° |
| 2026-04-30 14:51 | -23.46541 | -48.77383 | 20076 ft | 164 kts | 251° |
| 2026-04-30 14:52 | -23.46964 | -48.78529 | 20080 ft | 164 kts | 251° |
| 2026-04-30 14:52 | -23.47820 | -48.80848 | 20080 ft | 163 kts | 251° |
| 2026-04-30 14:52 | -23.48236 | -48.81980 | 20082 ft | 163 kts | 251° |
| 2026-04-30 14:53 | -23.49084 | -48.84286 | 20078 ft | 164 kts | 251° |
| 2026-04-30 14:53 | -23.49512 | -48.85452 | 20079 ft | 165 kts | 251° |
| 2026-04-30 14:54 | -23.50364 | -48.87764 | 20075 ft | 165 kts | 251° |
| 2026-04-30 14:54 | -23.51211 | -48.90068 | 20074 ft | 164 kts | 251° |
| 2026-04-30 14:55 | -23.52060 | -48.92378 | 20080 ft | 166 kts | 251° |
| 2026-04-30 14:55 | -23.52486 | -48.93544 | 20076 ft | 165 kts | 251° |
| 2026-04-30 14:55 | -23.53339 | -48.95861 | 20075 ft | 165 kts | 251° |
| 2026-04-30 14:56 | -23.54192 | -48.98188 | 20072 ft | 166 kts | 251° |
| 2026-04-30 14:56 | -23.55043 | -49.00508 | 20076 ft | 165 kts | 251° |
| 2026-04-30 14:57 | -23.55471 | -49.01678 | 20072 ft | 165 kts | 251° |
| 2026-04-30 14:57 | -23.56321 | -49.03993 | 20080 ft | 165 kts | 251° |
| 2026-04-30 14:58 | -23.57167 | -49.06306 | 20076 ft | 165 kts | 251° |
| 2026-04-30 14:58 | -23.57600 | -49.07475 | 20072 ft | 165 kts | 251° |
| 2026-04-30 14:58 | -23.58445 | -49.09803 | 20076 ft | 165 kts | 251° |
| 2026-04-30 14:59 | -23.59298 | -49.12133 | 20075 ft | 166 kts | 251° |
| 2026-04-30 15:00 | -23.60570 | -49.15608 | 20079 ft | 165 kts | 251° |
| 2026-04-30 15:00 | -23.61423 | -49.17945 | 20074 ft | 165 kts | 251° |
| 2026-04-30 15:01 | -23.62274 | -49.20275 | 20075 ft | 166 kts | 251° |
| 2026-04-30 15:01 | -23.62558 | -49.21054 | 20077 ft | 166 kts | 252° |
| 2026-04-30 15:01 | -23.63553 | -49.23784 | 20072 ft | 166 kts | 251° |
| 2026-04-30 15:02 | -23.63983 | -49.24962 | 20074 ft | 166 kts | 251° |
| 2026-04-30 15:02 | -23.64406 | -49.26123 | 20074 ft | 167 kts | 251° |
| 2026-04-30 15:03 | -23.65537 | -49.29230 | 20075 ft | 165 kts | 252° |
| 2026-04-30 15:03 | -23.66524 | -49.31936 | 20070 ft | 164 kts | 252° |
| 2026-04-30 15:04 | -23.67226 | -49.33871 | 20073 ft | 165 kts | 251° |
| 2026-04-30 15:04 | -23.68492 | -49.37350 | 20070 ft | 165 kts | 251° |
| 2026-04-30 15:05 | -23.69756 | -49.40833 | 20071 ft | 164 kts | 252° |
| 2026-04-30 15:06 | -23.70597 | -49.43148 | 20075 ft | 164 kts | 251° |
| 2026-04-30 15:06 | -23.71436 | -49.45465 | 20072 ft | 164 kts | 252° |
| 2026-04-30 15:07 | -23.72277 | -49.47779 | 20070 ft | 164 kts | 251° |
| 2026-04-30 15:07 | -23.73109 | -49.50076 | 20070 ft | 163 kts | 251° |
| 2026-04-30 15:08 | -23.73950 | -49.52399 | 20070 ft | 164 kts | 251° |
| 2026-04-30 15:08 | -23.75206 | -49.55872 | 20075 ft | 165 kts | 252° |
| 2026-04-30 15:09 | -23.76043 | -49.58191 | 20074 ft | 164 kts | 252° |
| 2026-04-30 15:09 | -23.76874 | -49.60495 | 20073 ft | 163 kts | 252° |
| 2026-04-30 15:10 | -23.77707 | -49.62804 | 20074 ft | 163 kts | 252° |
| 2026-04-30 15:11 | -23.79364 | -49.67404 | 20074 ft | 163 kts | 252° |
| 2026-04-30 15:11 | -23.80194 | -49.69710 | 20075 ft | 163 kts | 252° |
| 2026-04-30 15:12 | -23.81441 | -49.73176 | 20075 ft | 163 kts | 252° |
| 2026-04-30 15:13 | -23.82269 | -49.75479 | 20076 ft | 163 kts | 252° |
| 2026-04-30 15:14 | -23.83928 | -49.80098 | 20074 ft | 164 kts | 252° |
| 2026-04-30 15:14 | -23.85176 | -49.83575 | 20072 ft | 163 kts | 252° |
| 2026-04-30 15:16 | -23.87247 | -49.89354 | 20077 ft | 164 kts | 252° |
| 2026-04-30 15:17 | -23.88902 | -49.93976 | 20075 ft | 163 kts | 252° |
| 2026-04-30 15:18 | -23.90967 | -49.99756 | 20076 ft | 163 kts | 252° |
| 2026-04-30 15:19 | -23.92222 | -50.03275 | 20072 ft | 166 kts | 252° |